Marblemount, Washington
Current Conditions -  °F | °C
As of 4:35 PM on Thursday 18 Dec 2014 (Local Time) from KAWO Reporting Station
Overcast Overcast  
Wind Chill: 52°   Ceiling: 4900
Heat Index: 52°   Visibility: 10mi
Dew Point: 43°   Wind: 15mph
Humidity: 71%   Direction: 160°SSE
Pressure: 29.79"   Gusts: 18mph
Location:  48.53°N, 121.45°W
Report Text: KAWO 190035Z AUTO 16013G16KT 10SM SCT042 BKN049 OVC070 11/06 A2979 RMK AO1
Loading
Personal Weather Stations






























Interactive Weather Map New forecast layout! Learn more

10-Day Weather Forecast

Advertisements
Track Severe Weather on mobile